createdAt,value
2018-07-25T00:01:10.778Z,26.34
2018-07-25T00:02:10.723Z,26.24
2018-07-25T00:04:04.034Z,26.01
2018-07-25T00:05:03.960Z,26.06
2018-07-25T00:06:57.375Z,25.91
2018-07-25T00:07:57.311Z,25.86
2018-07-25T00:09:50.594Z,25.84
2018-07-25T00:10:50.540Z,25.81
2018-07-25T00:12:43.848Z,25.81
2018-07-25T00:13:43.774Z,25.84
2018-07-25T00:15:37.065Z,25.79
2018-07-25T00:16:37.014Z,25.78
2018-07-25T00:18:30.311Z,25.71
2018-07-25T00:19:30.238Z,25.67
2018-07-25T00:21:23.560Z,25.75
2018-07-25T00:22:23.472Z,25.66
2018-07-25T00:24:16.782Z,25.69
2018-07-25T00:25:16.708Z,25.59
2018-07-25T00:27:10.020Z,25.47
2018-07-25T00:28:09.944Z,25.60
2018-07-25T00:30:03.237Z,25.47
2018-07-25T00:31:03.180Z,25.38
2018-07-25T00:32:56.490Z,25.27
2018-07-25T00:33:56.414Z,25.12
2018-07-25T00:35:49.703Z,25.22
2018-07-25T00:36:49.647Z,25.17
2018-07-25T00:38:42.948Z,25.14
2018-07-25T00:39:42.877Z,25.08
2018-07-25T00:41:36.163Z,25.02
2018-07-25T00:42:36.107Z,25.05
2018-07-25T00:44:29.416Z,25.05
2018-07-25T00:45:29.341Z,25.01
2018-07-25T00:47:22.649Z,24.97
2018-07-25T00:48:22.575Z,25.02
2018-07-25T00:50:15.864Z,25.02
2018-07-25T00:51:15.809Z,25.00
2018-07-25T00:53:09.119Z,24.89
2018-07-25T00:54:09.047Z,24.87
2018-07-25T00:56:02.332Z,24.86
2018-07-25T00:57:02.277Z,24.82
2018-07-25T00:58:55.577Z,24.82
2018-07-25T00:59:55.501Z,24.74
2018-07-25T01:01:48.790Z,24.67
2018-07-25T01:02:48.735Z,24.64
2018-07-25T01:04:42.042Z,24.46
2018-07-25T01:05:41.969Z,24.39
2018-07-25T01:07:35.376Z,24.32
2018-07-25T01:08:35.301Z,24.29
2018-07-25T01:10:28.591Z,24.19
2018-07-25T01:11:28.534Z,24.18
2018-07-25T01:13:21.840Z,24.14
2018-07-25T01:14:21.767Z,24.08
2018-07-25T01:16:15.053Z,24.07
2018-07-25T01:17:14.996Z,24.04
2018-07-25T01:19:08.303Z,24.03
2018-07-25T01:20:08.228Z,24.08
2018-07-25T01:22:01.521Z,24.07
2018-07-25T01:23:01.461Z,23.97
2018-07-25T01:24:54.766Z,23.93
2018-07-25T01:25:54.691Z,23.96
2018-07-25T01:27:48.000Z,23.92
2018-07-25T01:28:47.921Z,23.89
2018-07-25T01:30:41.210Z,23.79
2018-07-25T01:31:41.152Z,23.89
2018-07-25T01:33:34.459Z,23.78
2018-07-25T01:34:34.384Z,23.85
2018-07-25T01:36:28.676Z,23.78
2018-07-25T01:37:28.617Z,23.72
2018-07-25T01:39:21.920Z,23.74
2018-07-25T01:40:21.844Z,23.71
2018-07-25T01:42:15.734Z,23.64
2018-07-25T01:43:15.074Z,23.63
2018-07-25T01:45:08.379Z,23.56
2018-07-25T01:46:08.303Z,23.63
2018-07-25T01:48:01.599Z,23.64
2018-07-25T01:49:01.524Z,23.62
2018-07-25T01:50:54.810Z,23.59
2018-07-25T01:51:54.756Z,23.64
2018-07-25T01:53:48.064Z,23.48
2018-07-25T01:54:47.987Z,23.50
2018-07-25T01:56:41.356Z,23.45
2018-07-25T01:57:41.303Z,23.53
2018-07-25T01:59:34.611Z,23.62
2018-07-25T02:00:34.528Z,23.64
2018-07-25T02:02:27.806Z,23.62
2018-07-25T02:03:27.758Z,23.66
2018-07-25T02:05:21.063Z,23.37
2018-07-25T02:06:20.986Z,23.35
2018-07-25T02:08:14.343Z,23.29
2018-07-25T02:09:14.209Z,23.19
2018-07-25T02:11:07.496Z,23.32
2018-07-25T02:12:07.439Z,23.19
2018-07-25T02:14:00.743Z,23.29
2018-07-25T02:15:00.669Z,23.25
2018-07-25T02:16:53.954Z,23.12
2018-07-25T02:17:53.894Z,23.07
2018-07-25T02:19:47.202Z,23.16
2018-07-25T02:20:47.122Z,23.10
2018-07-25T02:22:40.412Z,23.07
2018-07-25T02:23:40.351Z,23.10
2018-07-25T02:25:33.656Z,23.04
2018-07-25T02:26:33.580Z,23.04
2018-07-25T02:28:26.885Z,22.99
2018-07-25T02:29:26.810Z,23.03
2018-07-25T02:31:20.096Z,23.04
2018-07-25T02:32:20.039Z,22.91
2018-07-25T02:34:13.376Z,22.94
2018-07-25T02:35:13.299Z,22.84
2018-07-25T02:37:06.585Z,22.91
2018-07-25T02:38:06.526Z,22.96
2018-07-25T02:39:59.834Z,22.94
2018-07-25T02:40:59.756Z,22.89
2018-07-25T02:42:53.040Z,22.84
2018-07-25T02:43:53.032Z,22.84
2018-07-25T02:45:46.289Z,22.78
2018-07-25T02:46:46.212Z,22.79
2018-07-25T02:48:39.517Z,22.75
2018-07-25T02:49:39.442Z,22.78
2018-07-25T02:51:32.749Z,22.84
2018-07-25T02:52:32.669Z,22.78
2018-07-25T02:54:25.973Z,22.73
2018-07-25T02:55:25.894Z,22.64
2018-07-25T02:57:19.179Z,22.71
2018-07-25T02:58:19.122Z,22.70
2018-07-25T03:00:12.425Z,22.63
2018-07-25T03:01:12.351Z,22.59
2018-07-25T03:03:05.634Z,22.73
2018-07-25T03:04:05.576Z,22.67
2018-07-25T03:05:58.880Z,22.67
2018-07-25T03:06:58.802Z,22.67
2018-07-25T03:08:52.119Z,22.71
2018-07-25T03:09:52.036Z,22.71
2018-07-25T03:11:45.437Z,22.76
2018-07-25T03:12:45.296Z,22.66
2018-07-25T03:14:38.601Z,22.59
2018-07-25T03:15:38.522Z,22.59
2018-07-25T03:17:31.810Z,22.49
2018-07-25T03:18:31.756Z,22.54
2018-07-25T03:20:25.061Z,22.45
2018-07-25T03:21:24.981Z,22.48
2018-07-25T03:23:18.266Z,22.52
2018-07-25T03:24:18.209Z,22.45
2018-07-25T03:26:11.511Z,22.48
2018-07-25T03:27:11.433Z,22.51
2018-07-25T03:29:04.752Z,22.52
2018-07-25T03:30:04.662Z,22.46
2018-07-25T03:31:57.956Z,22.52
2018-07-25T03:32:57.885Z,22.41
2018-07-25T03:34:51.295Z,22.49
2018-07-25T03:35:51.115Z,22.42
2018-07-25T03:37:44.401Z,22.44
2018-07-25T03:38:44.343Z,22.57
2018-07-25T03:40:37.646Z,22.44
2018-07-25T03:41:37.569Z,22.46
2018-07-25T03:43:30.855Z,22.46
2018-07-25T03:44:30.816Z,22.42
2018-07-25T03:46:24.204Z,22.48
2018-07-25T03:47:24.024Z,22.41
2018-07-25T03:49:17.429Z,22.42
2018-07-25T03:50:17.295Z,22.30
2018-07-25T03:52:10.645Z,22.42
2018-07-25T03:53:10.522Z,22.34
2018-07-25T03:55:03.826Z,22.38
2018-07-25T03:56:03.748Z,22.44
2018-07-25T03:57:57.024Z,22.33
2018-07-25T03:58:56.967Z,22.39
2018-07-25T04:00:50.273Z,22.34
2018-07-25T04:01:50.253Z,22.31
2018-07-25T04:03:43.480Z,22.33
2018-07-25T04:04:43.424Z,22.31
2018-07-25T04:06:36.727Z,22.36
2018-07-25T04:07:36.651Z,22.39
2018-07-25T04:09:29.936Z,22.33
2018-07-25T04:10:29.878Z,22.34
2018-07-25T04:12:23.183Z,22.34
2018-07-25T04:13:23.105Z,22.34
2018-07-25T04:15:16.411Z,22.31
2018-07-25T04:16:16.333Z,22.31
2018-07-25T04:18:09.720Z,22.39
2018-07-25T04:19:09.552Z,22.38
2018-07-25T04:21:02.959Z,22.34
2018-07-25T04:22:02.780Z,22.42
2018-07-25T04:23:56.166Z,22.38
2018-07-25T04:24:56.008Z,22.38
2018-07-25T04:26:49.374Z,22.42
2018-07-25T04:27:49.296Z,22.38
2018-07-25T04:29:42.582Z,22.41
2018-07-25T04:30:42.526Z,22.38
2018-07-25T04:32:35.829Z,22.26
2018-07-25T04:33:35.754Z,22.23
2018-07-25T04:35:29.058Z,22.41
2018-07-25T04:36:28.980Z,22.38
2018-07-25T04:38:22.294Z,22.30
2018-07-25T04:39:22.209Z,22.16
2018-07-25T04:41:15.516Z,22.18
2018-07-25T04:42:15.445Z,22.16
2018-07-25T04:44:08.724Z,22.08
2018-07-25T04:45:08.668Z,22.16
2018-07-25T04:47:01.972Z,22.12
2018-07-25T04:48:01.894Z,22.27
2018-07-25T04:49:55.179Z,22.11
2018-07-25T04:50:55.121Z,22.18
2018-07-25T04:52:48.425Z,22.12
2018-07-25T04:53:48.349Z,22.18
2018-07-25T04:55:41.634Z,22.34
2018-07-25T04:56:41.575Z,22.41
2018-07-25T04:58:34.883Z,22.36
2018-07-25T04:59:34.806Z,22.41
2018-07-25T05:01:29.113Z,22.52
2018-07-25T05:02:29.033Z,22.48
2018-07-25T05:04:22.326Z,22.51
2018-07-25T05:05:22.260Z,22.59
2018-07-25T05:07:15.629Z,22.60
2018-07-25T05:08:15.489Z,22.73
2018-07-25T05:10:08.776Z,22.71
2018-07-25T05:11:08.717Z,22.70
2018-07-25T05:13:02.024Z,22.69
2018-07-25T05:14:01.946Z,22.67
2018-07-25T05:15:55.333Z,22.84
2018-07-25T05:16:55.175Z,22.82
2018-07-25T05:18:48.584Z,22.81
2018-07-25T05:19:48.395Z,22.88
2018-07-25T05:21:41.714Z,22.96
2018-07-25T05:22:41.623Z,22.96
2018-07-25T05:24:34.912Z,22.92
2018-07-25T05:25:34.855Z,22.91
2018-07-25T05:27:28.161Z,22.92
2018-07-25T05:28:28.085Z,23.01
2018-07-25T05:30:21.370Z,23.04
2018-07-25T05:31:21.314Z,23.07
2018-07-25T05:33:14.620Z,23.10
2018-07-25T05:34:14.544Z,23.01
2018-07-25T05:36:07.834Z,23.03
2018-07-25T05:37:07.774Z,22.99
2018-07-25T05:39:01.084Z,22.91
2018-07-25T05:40:01.005Z,22.99
2018-07-25T05:41:54.292Z,22.96
2018-07-25T05:42:54.234Z,22.91
2018-07-25T05:44:47.549Z,23.15
2018-07-25T05:45:47.465Z,23.16
2018-07-25T05:47:40.774Z,23.25
2018-07-25T05:48:40.696Z,23.34
2018-07-25T05:50:33.982Z,23.35
2018-07-25T05:51:33.925Z,23.22
2018-07-25T05:53:27.233Z,23.22
2018-07-25T05:54:27.157Z,23.29
2018-07-25T05:56:20.444Z,23.40
2018-07-25T05:57:20.387Z,23.56
2018-07-25T05:59:13.692Z,23.59
2018-07-25T06:00:13.617Z,23.55
2018-07-25T06:02:06.905Z,23.60
2018-07-25T06:03:06.918Z,23.64
2018-07-25T06:05:00.159Z,23.67
2018-07-25T06:06:00.127Z,23.71
2018-07-25T06:07:53.374Z,23.82
2018-07-25T06:08:53.316Z,23.87
2018-07-25T06:10:46.624Z,23.94
2018-07-25T06:11:46.597Z,24.02
2018-07-25T06:13:39.915Z,23.92
2018-07-25T06:14:39.781Z,23.89
2018-07-25T06:16:33.069Z,23.94
2018-07-25T06:17:33.014Z,23.87
2018-07-25T06:19:26.362Z,24.03
2018-07-25T06:20:26.285Z,24.04
2018-07-25T06:22:19.554Z,24.18
2018-07-25T06:23:19.497Z,24.21
2018-07-25T06:25:12.808Z,24.33
2018-07-25T06:26:12.731Z,24.36
2018-07-25T06:28:06.119Z,24.33
2018-07-25T06:29:05.954Z,24.45
2018-07-25T06:30:59.377Z,24.66
2018-07-25T06:31:59.301Z,24.69
2018-07-25T06:33:52.591Z,24.56
2018-07-25T06:34:52.559Z,24.55
2018-07-25T06:36:45.842Z,24.92
2018-07-25T06:37:45.768Z,25.12
2018-07-25T06:39:39.193Z,25.93
2018-07-25T06:40:39.006Z,26.11
2018-07-25T06:42:32.300Z,26.63
2018-07-25T06:43:32.266Z,27.15
2018-07-25T06:45:25.552Z,27.15
2018-07-25T06:46:25.484Z,27.24
2018-07-25T06:48:18.779Z,27.11
2018-07-25T06:49:18.728Z,26.99
2018-07-25T06:51:12.040Z,26.76
2018-07-25T06:52:11.971Z,26.59
2018-07-25T06:54:05.262Z,26.24
2018-07-25T06:55:05.208Z,26.42
2018-07-25T06:56:58.516Z,27.26
2018-07-25T06:57:58.451Z,27.24
2018-07-25T06:59:51.744Z,27.61
2018-07-25T07:00:51.696Z,27.75
2018-07-25T07:02:45.006Z,27.98
2018-07-25T07:03:44.937Z,27.91
2018-07-25T07:05:38.357Z,27.66
2018-07-25T07:06:38.218Z,27.90
2018-07-25T07:08:31.590Z,28.45
2018-07-25T07:09:31.438Z,28.65
2018-07-25T07:11:24.753Z,29.06
2018-07-25T07:12:24.689Z,29.18
2018-07-25T07:14:17.987Z,29.61
2018-07-25T07:15:17.989Z,29.75
2018-07-25T07:17:11.373Z,29.57
2018-07-25T07:18:11.312Z,29.79
2018-07-25T07:20:04.613Z,30.24
2018-07-25T07:21:04.568Z,30.35
2018-07-25T07:22:57.889Z,30.62
2018-07-25T07:23:57.835Z,30.75
2018-07-25T07:25:51.163Z,30.69
2018-07-25T07:26:51.082Z,30.93
2018-07-25T07:28:44.496Z,30.56
2018-07-25T07:29:44.338Z,29.24
2018-07-25T07:31:37.660Z,28.54
2018-07-25T07:32:37.596Z,28.63
2018-07-25T07:34:30.909Z,28.57
2018-07-25T07:35:30.863Z,28.68
2018-07-25T07:37:24.265Z,28.45
2018-07-25T07:38:24.120Z,28.67
2018-07-25T07:40:17.434Z,29.02
2018-07-25T07:41:17.374Z,29.18
2018-07-25T07:43:10.703Z,28.43
2018-07-25T07:44:10.643Z,28.64
2018-07-25T07:46:03.936Z,29.43
2018-07-25T07:47:03.892Z,29.61
2018-07-25T07:48:57.213Z,29.84
2018-07-25T07:49:57.151Z,29.89
2018-07-25T07:51:50.468Z,30.10
2018-07-25T07:52:50.404Z,30.22
2018-07-25T07:54:43.706Z,30.42
2018-07-25T07:55:43.662Z,30.63
2018-07-25T07:57:36.980Z,30.34
2018-07-25T07:58:36.918Z,29.95
2018-07-25T08:00:30.217Z,29.73
2018-07-25T08:01:30.172Z,29.20
2018-07-25T08:03:23.603Z,29.45
2018-07-25T08:04:23.429Z,29.77
2018-07-25T08:06:16.729Z,30.32
2018-07-25T08:07:16.684Z,30.54
2018-07-25T08:09:10.106Z,30.67
2018-07-25T08:10:09.938Z,30.42
2018-07-25T08:12:03.265Z,30.34
2018-07-25T08:13:03.189Z,30.45
2018-07-25T08:14:56.498Z,30.59
2018-07-25T08:15:56.452Z,30.91
2018-07-25T08:17:49.780Z,31.40
2018-07-25T08:18:49.703Z,31.30
2018-07-25T08:20:43.050Z,31.21
2018-07-25T08:21:42.954Z,31.43
2018-07-25T08:23:36.273Z,31.68
2018-07-25T08:24:36.204Z,31.58
2018-07-25T08:26:29.503Z,31.25
2018-07-25T08:27:29.456Z,30.96
2018-07-25T08:29:22.876Z,30.62
2018-07-25T08:30:22.706Z,30.47
2018-07-25T08:32:16.002Z,30.35
2018-07-25T08:33:15.956Z,30.26
2018-07-25T08:35:09.380Z,30.26
2018-07-25T08:36:09.314Z,30.34
2018-07-25T08:38:02.628Z,30.69
2018-07-25T08:39:02.561Z,30.88
2018-07-25T08:40:55.857Z,31.68
2018-07-25T08:41:55.808Z,31.91
2018-07-25T08:43:49.228Z,31.62
2018-07-25T08:44:49.056Z,31.63
2018-07-25T08:46:42.464Z,32.00
2018-07-25T08:47:42.303Z,31.63
2018-07-25T08:49:36.615Z,32.20
2018-07-25T08:50:36.549Z,32.35
2018-07-25T08:52:30.933Z,32.38
2018-07-25T08:53:30.799Z,32.71
2018-07-25T08:55:24.111Z,32.76
2018-07-25T08:56:24.047Z,33.06
2018-07-25T08:58:17.364Z,33.61
2018-07-25T08:59:17.315Z,33.74
2018-07-25T09:01:10.627Z,33.65
2018-07-25T09:02:10.563Z,33.21
2018-07-25T09:04:03.877Z,33.13
2018-07-25T09:05:03.810Z,32.98
2018-07-25T09:06:57.107Z,33.03
2018-07-25T09:07:57.060Z,33.29
2018-07-25T09:09:50.374Z,32.56
2018-07-25T09:10:50.308Z,32.35
2018-07-25T09:12:43.668Z,32.05
2018-07-25T09:13:43.556Z,32.49
2018-07-25T09:15:36.875Z,33.29
2018-07-25T09:16:36.810Z,33.37
2018-07-25T09:18:31.104Z,33.48
2018-07-25T09:19:31.058Z,33.85
2018-07-25T09:21:24.376Z,33.73
2018-07-25T09:22:24.309Z,34.10
2018-07-25T09:24:17.626Z,33.84
2018-07-25T09:25:17.646Z,34.02
2018-07-25T09:27:10.927Z,34.30
2018-07-25T09:28:10.881Z,34.79
2018-07-25T09:30:04.196Z,34.61
2018-07-25T09:31:04.132Z,34.55
2018-07-25T09:32:57.430Z,34.49
2018-07-25T09:33:57.394Z,34.43
2018-07-25T09:35:50.701Z,35.13
2018-07-25T09:36:50.633Z,35.09
2018-07-25T09:38:43.931Z,34.63
2018-07-25T09:39:43.887Z,34.71
2018-07-25T09:41:37.204Z,35.02
2018-07-25T09:42:37.140Z,34.93
2018-07-25T09:44:30.521Z,34.48
2018-07-25T09:45:30.401Z,34.36
2018-07-25T09:47:23.724Z,35.28
2018-07-25T09:48:23.682Z,35.33
2018-07-25T09:50:16.970Z,35.71
2018-07-25T09:51:16.907Z,36.30
2018-07-25T09:53:10.265Z,36.46
2018-07-25T09:54:10.168Z,36.12
2018-07-25T09:56:03.581Z,35.71
2018-07-25T09:57:03.418Z,35.43
2018-07-25T09:58:56.901Z,35.64
2018-07-25T09:59:56.671Z,35.35
2018-07-25T10:01:50.097Z,35.21
2018-07-25T10:02:49.931Z,34.75
2018-07-25T10:04:43.236Z,34.02
2018-07-25T10:05:43.190Z,34.55
2018-07-25T10:07:36.590Z,36.21
2018-07-25T10:08:36.444Z,36.24
2018-07-25T10:10:29.805Z,35.77
2018-07-25T10:11:29.709Z,35.12
2018-07-25T10:13:23.014Z,34.87
2018-07-25T10:14:22.963Z,35.34
2018-07-25T10:16:16.283Z,36.43
2018-07-25T10:17:16.223Z,36.53
2018-07-25T10:19:09.521Z,36.08
2018-07-25T10:20:09.477Z,36.09
2018-07-25T10:22:02.797Z,35.65
2018-07-25T10:23:02.759Z,35.82
2018-07-25T10:24:56.034Z,37.24
2018-07-25T10:25:55.991Z,36.21
2018-07-25T10:27:49.381Z,35.53
2018-07-25T10:28:49.321Z,35.33
2018-07-25T10:30:42.640Z,35.74
2018-07-25T10:31:42.594Z,36.25
2018-07-25T10:33:35.907Z,35.98
2018-07-25T10:34:35.839Z,35.71
2018-07-25T10:36:29.261Z,35.86
2018-07-25T10:37:29.097Z,36.04
2018-07-25T10:39:22.399Z,36.93
2018-07-25T10:40:22.355Z,36.95
2018-07-25T10:42:15.678Z,37.51
2018-07-25T10:43:15.614Z,37.37
2018-07-25T10:45:08.927Z,36.77
2018-07-25T10:46:08.883Z,36.56
2018-07-25T10:48:03.207Z,34.75
2018-07-25T10:49:03.143Z,34.84
2018-07-25T10:50:56.460Z,35.02
2018-07-25T10:51:56.409Z,35.02
2018-07-25T10:53:49.742Z,36.14
2018-07-25T10:54:49.678Z,36.26
2018-07-25T10:56:43.014Z,36.68
2018-07-25T10:57:42.948Z,36.74
2018-07-25T10:59:36.259Z,37.17
2018-07-25T11:00:36.214Z,37.46
2018-07-25T11:02:29.549Z,37.19
2018-07-25T11:03:29.489Z,37.24
2018-07-25T11:05:22.799Z,36.58
2018-07-25T11:06:22.759Z,36.39
2018-07-25T11:08:16.090Z,36.92
2018-07-25T11:09:16.028Z,36.68
2018-07-25T11:11:09.371Z,36.49
2018-07-25T11:12:09.318Z,35.82
2018-07-25T11:14:02.650Z,36.04
2018-07-25T11:15:02.587Z,36.26
2018-07-25T11:16:55.911Z,36.19
2018-07-25T11:17:55.866Z,36.44
2018-07-25T11:19:49.196Z,35.95
2018-07-25T11:20:49.133Z,35.83
2018-07-25T11:22:42.466Z,36.19
2018-07-25T11:23:42.402Z,36.06
2018-07-25T11:25:35.717Z,36.22
2018-07-25T11:26:35.670Z,36.28
2018-07-25T11:28:28.993Z,36.26
2018-07-25T11:29:28.929Z,35.64
2018-07-25T11:31:22.240Z,35.46
2018-07-25T11:32:22.205Z,35.31
2018-07-25T11:34:15.527Z,35.57
2018-07-25T11:35:15.465Z,34.72
2018-07-25T11:37:08.775Z,34.93
2018-07-25T11:38:08.775Z,35.16
2018-07-25T11:40:02.061Z,35.40
2018-07-25T11:41:01.995Z,35.53
2018-07-25T11:42:55.361Z,35.33
2018-07-25T11:43:55.316Z,35.35
2018-07-25T11:45:48.646Z,35.47
2018-07-25T11:46:48.579Z,35.58
2018-07-25T11:48:41.901Z,35.53
2018-07-25T11:49:41.837Z,35.53
2018-07-25T11:51:35.136Z,35.13
2018-07-25T11:52:35.091Z,35.11
2018-07-25T11:54:28.440Z,34.89
2018-07-25T11:55:28.381Z,34.91
2018-07-25T11:57:21.667Z,34.52
2018-07-25T11:58:21.619Z,34.56
2018-07-25T12:00:14.936Z,34.34
2018-07-25T12:01:14.879Z,34.26
2018-07-25T12:03:08.172Z,34.55
2018-07-25T12:04:08.122Z,34.67
2018-07-25T12:06:01.447Z,34.71
2018-07-25T12:08:55.679Z,34.39
2018-07-25T12:09:55.630Z,34.49
2018-07-25T12:11:48.960Z,34.21
2018-07-25T12:12:48.930Z,34.27
2018-07-25T12:14:42.215Z,34.30
2018-07-25T12:15:42.146Z,34.39
2018-07-25T12:17:35.449Z,34.46
2018-07-25T12:18:35.402Z,34.52
2018-07-25T12:20:28.727Z,34.86
2018-07-25T12:21:28.661Z,34.97
2018-07-25T12:23:21.967Z,35.21
2018-07-25T12:24:21.917Z,35.35
2018-07-25T12:26:15.234Z,35.20
2018-07-25T12:27:15.168Z,35.16
2018-07-25T12:29:08.464Z,35.20
2018-07-25T12:30:08.416Z,34.84
2018-07-25T12:32:01.782Z,34.83
2018-07-25T12:33:01.686Z,35.09
2018-07-25T12:34:55.002Z,35.23
2018-07-25T12:35:54.936Z,35.18
2018-07-25T12:37:48.232Z,35.31
2018-07-25T12:38:48.185Z,35.57
2018-07-25T12:40:41.502Z,35.58
2018-07-25T12:41:41.490Z,35.67
2018-07-25T12:43:34.837Z,35.82
2018-07-25T12:44:34.684Z,35.79
2018-07-25T12:46:27.999Z,35.90
2018-07-25T12:47:27.935Z,35.77
2018-07-25T12:49:21.338Z,35.86
2018-07-25T12:50:21.188Z,35.94
2018-07-25T12:52:14.610Z,35.67
2018-07-25T12:53:14.454Z,35.64
2018-07-25T12:55:07.737Z,35.67
2018-07-25T12:56:07.690Z,35.64
2018-07-25T12:58:01.008Z,35.34
2018-07-25T12:59:00.936Z,35.30
